createdAt,value
2022-10-11T00:01:38.721Z,6.00
2022-10-11T00:04:08.561Z,5.98
2022-10-11T00:06:39.135Z,6.00
2022-10-11T00:09:09.097Z,6.00
2022-10-11T00:11:40.189Z,5.99
2022-10-11T00:14:11.385Z,6.00
2022-10-11T00:16:45.019Z,6.03
2022-10-11T00:19:14.753Z,6.06
2022-10-11T00:21:45.295Z,6.09
2022-10-11T00:24:16.706Z,6.10
2022-10-11T00:26:47.107Z,6.11
2022-10-11T00:29:17.349Z,6.11
2022-10-11T00:31:47.136Z,6.11
2022-10-11T00:34:19.392Z,6.12
2022-10-11T00:36:49.282Z,6.13
2022-10-11T00:39:20.325Z,6.13
2022-10-11T00:41:52.261Z,6.13
2022-10-11T00:44:27.338Z,6.14
2022-10-11T00:47:10.016Z,6.14
2022-10-11T00:49:46.548Z,6.16
2022-10-11T00:52:35.520Z,6.18
2022-10-11T00:55:13.458Z,6.20
2022-10-11T00:57:48.386Z,6.21
2022-10-11T01:00:20.273Z,6.23
2022-10-11T01:02:52.258Z,6.24
2022-10-11T01:05:29.667Z,6.25
2022-10-11T01:08:01.935Z,6.24
2022-10-11T01:10:33.017Z,6.24
2022-10-11T01:13:37.683Z,6.23
2022-10-11T01:16:17.384Z,6.22
2022-10-11T01:19:14.528Z,6.22
2022-10-11T01:21:53.521Z,6.21
2022-10-11T01:24:58.224Z,6.19
2022-10-11T01:27:33.233Z,6.19
2022-10-11T01:30:24.254Z,6.16
2022-10-11T01:33:14.919Z,6.13
2022-10-11T01:36:30.526Z,6.10
2022-10-11T01:39:17.307Z,6.07
2022-10-11T01:41:52.432Z,6.04
2022-10-11T01:44:25.647Z,6.01
2022-10-11T01:46:55.366Z,5.98
2022-10-11T01:49:25.107Z,5.91
2022-10-11T01:51:57.393Z,5.85
2022-10-11T01:54:56.548Z,5.80
2022-10-11T01:57:59.787Z,5.76
2022-10-11T02:00:42.342Z,5.71
2022-10-11T02:03:35.218Z,5.67
2022-10-11T02:06:09.199Z,5.61
2022-10-11T02:08:43.129Z,5.57
2022-10-11T02:11:29.447Z,5.54
2022-10-11T02:14:05.495Z,5.51
2022-10-11T02:16:49.186Z,5.49
2022-10-11T02:19:21.319Z,5.45
2022-10-11T02:21:57.808Z,5.43
2022-10-11T02:24:34.348Z,5.40
2022-10-11T02:27:06.659Z,5.38
2022-10-11T02:29:40.371Z,5.38
2022-10-11T02:32:12.194Z,5.36
2022-10-11T02:34:47.611Z,5.34
2022-10-11T02:37:36.938Z,5.30
2022-10-11T02:40:28.512Z,5.27
2022-10-11T02:43:04.185Z,5.24
2022-10-11T02:45:40.206Z,5.20
2022-10-11T02:48:11.911Z,5.18
2022-10-11T02:50:42.020Z,5.16
2022-10-11T02:53:10.978Z,5.12
2022-10-11T02:55:40.121Z,5.09
2022-10-11T02:58:09.574Z,5.06
2022-10-11T03:00:38.398Z,5.02
2022-10-11T03:03:08.887Z,4.97
2022-10-11T03:05:42.184Z,4.94
2022-10-11T03:08:14.428Z,4.90
2022-10-11T03:10:44.206Z,4.87
2022-10-11T03:13:17.865Z,4.82
2022-10-11T03:16:02.341Z,4.76
2022-10-11T03:18:33.172Z,4.71
2022-10-11T03:21:04.840Z,4.67
2022-10-11T03:23:34.798Z,4.64
2022-10-11T03:26:05.002Z,4.62
2022-10-11T03:28:34.270Z,4.60
2022-10-11T03:31:04.040Z,4.58
2022-10-11T03:33:33.363Z,4.55
2022-10-11T03:36:03.561Z,4.53
2022-10-11T03:38:33.121Z,4.50
2022-10-11T03:41:03.032Z,4.49
2022-10-11T03:43:32.451Z,4.47
2022-10-11T03:46:02.165Z,4.47
2022-10-11T03:48:31.082Z,4.47
2022-10-11T03:50:59.875Z,4.46
2022-10-11T03:53:28.745Z,4.45
2022-10-11T03:55:58.092Z,4.45
2022-10-11T03:58:27.593Z,4.43
2022-10-11T04:00:56.571Z,4.41
2022-10-11T04:03:25.114Z,4.39
2022-10-11T04:05:53.682Z,4.37
2022-10-11T04:08:22.566Z,4.35
2022-10-11T04:10:51.916Z,4.32
2022-10-11T04:13:21.257Z,4.30
2022-10-11T04:15:50.072Z,4.27
2022-10-11T04:18:18.868Z,4.26
2022-10-11T04:20:47.756Z,4.24
2022-10-11T04:23:16.971Z,4.23
2022-10-11T04:25:46.041Z,4.21
2022-10-11T04:28:15.629Z,4.21
2022-10-11T04:30:44.693Z,4.20
2022-10-11T04:33:13.340Z,4.19
2022-10-11T04:35:42.033Z,4.19
2022-10-11T04:38:10.928Z,4.19
2022-10-11T04:40:40.432Z,4.20
2022-10-11T04:43:09.414Z,4.21
2022-10-11T04:45:39.335Z,4.23
2022-10-11T04:48:08.642Z,4.25
2022-10-11T04:50:38.147Z,4.29
2022-10-11T04:53:10.419Z,4.33
2022-10-11T04:55:39.666Z,4.39
2022-10-11T04:58:08.242Z,4.43
2022-10-11T05:00:40.992Z,4.51
2022-10-11T05:03:12.455Z,4.59
2022-10-11T05:05:41.731Z,4.67
2022-10-11T05:08:10.826Z,4.75
2022-10-11T05:10:39.718Z,4.83
2022-10-11T05:13:08.673Z,4.91
2022-10-11T05:15:37.601Z,4.98
2022-10-11T05:18:07.709Z,5.07
2022-10-11T05:20:36.898Z,5.16
2022-10-11T05:23:05.923Z,5.31
2022-10-11T05:25:35.702Z,5.51
2022-10-11T05:28:04.602Z,5.80
2022-10-11T05:30:33.716Z,6.11
2022-10-11T05:33:02.995Z,6.43
2022-10-11T05:35:31.559Z,6.69
2022-10-11T05:38:00.157Z,6.89
2022-10-11T05:40:29.407Z,7.12
2022-10-11T05:42:58.061Z,7.34
2022-10-11T05:45:26.957Z,7.49
2022-10-11T05:47:56.024Z,7.71
2022-10-11T05:50:24.871Z,7.98
2022-10-11T05:52:53.453Z,8.21
2022-10-11T05:55:22.084Z,8.53
2022-10-11T05:57:56.595Z,8.71
2022-10-11T06:00:26.559Z,8.75
2022-10-11T06:02:55.925Z,8.85
2022-10-11T06:05:25.220Z,8.92
2022-10-11T06:07:54.901Z,9.01
2022-10-11T06:10:24.386Z,9.13
2022-10-11T06:12:53.434Z,9.26
2022-10-11T06:15:22.222Z,9.36
2022-10-11T06:17:53.160Z,9.40
2022-10-11T06:20:21.641Z,9.48
2022-10-11T06:22:50.431Z,9.67
2022-10-11T06:25:19.009Z,9.98
2022-10-11T06:27:47.657Z,10.25
2022-10-11T06:30:17.171Z,10.61
2022-10-11T06:32:45.988Z,10.88
2022-10-11T06:35:15.290Z,11.16
2022-10-11T06:37:44.182Z,11.69
2022-10-11T06:40:13.368Z,12.15
2022-10-11T06:42:42.051Z,12.59
2022-10-11T06:45:10.950Z,12.62
2022-10-11T06:47:39.946Z,12.65
2022-10-11T06:50:09.183Z,12.61
2022-10-11T06:52:37.929Z,12.59
2022-10-11T06:55:07.700Z,12.62
2022-10-11T06:57:36.433Z,12.53
2022-10-11T07:00:10.319Z,12.35
2022-10-11T07:02:41.556Z,12.20
2022-10-11T07:05:10.981Z,12.11
2022-10-11T07:07:40.079Z,12.02
2022-10-11T07:10:09.540Z,12.01
2022-10-11T07:12:38.161Z,12.14
2022-10-11T07:15:07.527Z,12.36
2022-10-11T07:17:36.126Z,12.70
2022-10-11T07:20:07.024Z,13.16
2022-10-11T07:22:36.182Z,13.54
2022-10-11T07:25:05.442Z,13.59
2022-10-11T07:27:34.172Z,13.70
2022-10-11T07:30:02.964Z,13.84
2022-10-11T07:32:31.947Z,13.94
2022-10-11T07:35:01.258Z,14.00
2022-10-11T07:37:30.022Z,13.96
2022-10-11T07:39:58.925Z,14.03
2022-10-11T07:42:27.919Z,14.12
2022-10-11T07:44:56.602Z,14.38
2022-10-11T07:47:25.219Z,14.58
2022-10-11T07:49:56.704Z,14.64
2022-10-11T07:52:27.980Z,14.70
2022-10-11T07:54:57.391Z,14.90
2022-10-11T07:57:25.974Z,15.00
2022-10-11T07:59:55.169Z,14.91
2022-10-11T08:02:24.109Z,14.90
2022-10-11T08:04:53.266Z,15.02
2022-10-11T08:07:25.723Z,15.14
2022-10-11T08:09:54.520Z,15.21
2022-10-11T08:12:23.490Z,15.26
2022-10-11T08:15:00.421Z,15.45
2022-10-11T08:17:31.438Z,15.42
2022-10-11T08:20:00.296Z,15.22
2022-10-11T08:22:29.042Z,15.34
2022-10-11T08:24:57.824Z,15.39
2022-10-11T08:27:26.677Z,15.55
2022-10-11T08:29:55.470Z,15.73
2022-10-11T08:32:24.002Z,16.37
2022-10-11T08:34:53.249Z,16.95
2022-10-11T08:37:21.940Z,17.67
2022-10-11T08:39:50.634Z,18.20
2022-10-11T08:42:35.843Z,18.39
2022-10-11T08:45:11.842Z,18.66
2022-10-11T08:47:44.637Z,19.11
2022-10-11T08:50:20.242Z,19.36
2022-10-11T08:52:54.374Z,19.42
2022-10-11T08:55:32.604Z,20.24
2022-10-11T08:58:02.531Z,20.54
2022-10-11T09:00:34.430Z,20.68
2022-10-11T09:03:22.315Z,20.82
2022-10-11T09:06:21.706Z,21.31
2022-10-11T09:09:06.594Z,21.57
2022-10-11T09:11:47.871Z,22.10
2022-10-11T09:14:31.469Z,22.58
2022-10-11T09:17:26.398Z,23.51
2022-10-11T09:20:03.895Z,23.54
2022-10-11T09:22:49.168Z,23.25
2022-10-11T09:25:52.877Z,23.71
2022-10-11T09:28:47.895Z,24.04
2022-10-11T09:31:17.279Z,23.27
2022-10-11T09:33:50.485Z,23.91
2022-10-11T09:36:38.181Z,22.73
2022-10-11T09:39:48.708Z,22.31
2022-10-11T09:42:17.502Z,22.14
2022-10-11T09:44:55.651Z,22.77
2022-10-11T09:47:29.393Z,23.65
2022-10-11T09:50:01.915Z,24.18
2022-10-11T09:52:31.364Z,23.76
2022-10-11T09:55:02.078Z,23.36
2022-10-11T09:57:37.801Z,23.28
2022-10-11T10:00:27.490Z,22.03
2022-10-11T10:03:01.872Z,21.79
2022-10-11T10:05:37.226Z,20.93
2022-10-11T10:08:23.067Z,20.99
2022-10-11T10:11:04.568Z,19.73
2022-10-11T10:13:45.736Z,19.36
2022-10-11T10:16:29.941Z,19.40
2022-10-11T10:19:02.366Z,19.01
2022-10-11T10:21:43.719Z,18.97
2022-10-11T10:24:36.883Z,18.55
2022-10-11T10:27:11.401Z,18.28
2022-10-11T10:29:41.275Z,18.02
2022-10-11T10:32:14.916Z,17.67
2022-10-11T10:35:03.235Z,17.12
2022-10-11T10:38:06.971Z,16.99
2022-10-11T10:40:41.507Z,16.59
2022-10-11T10:43:15.871Z,16.35
2022-10-11T10:46:09.217Z,16.36
2022-10-11T10:52:28.672Z,16.48
2022-10-11T10:55:08.032Z,16.07
2022-10-11T10:57:39.313Z,16.11
2022-10-11T11:00:14.071Z,15.90
2022-10-11T11:02:55.474Z,15.87
2022-10-11T11:05:55.795Z,15.82
2022-10-11T11:08:52.057Z,15.82
2022-10-11T11:11:44.054Z,16.10
2022-10-11T11:15:03.130Z,16.40
2022-10-11T11:17:42.154Z,16.54
2022-10-11T11:20:47.704Z,16.54
2022-10-11T11:23:34.517Z,16.67
2022-10-11T11:26:03.901Z,16.81
2022-10-11T11:28:38.627Z,16.60
2022-10-11T11:31:41.320Z,16.49
2022-10-11T11:34:25.051Z,16.97
2022-10-11T11:36:56.821Z,17.45
2022-10-11T11:39:36.565Z,17.77
2022-10-11T11:42:08.525Z,17.93
2022-10-11T11:44:47.353Z,17.88
2022-10-11T11:47:34.367Z,17.97
2022-10-11T11:50:28.656Z,18.07
2022-10-11T11:53:05.553Z,18.07
2022-10-11T11:55:43.763Z,18.18
2022-10-11T11:58:37.203Z,18.22
2022-10-11T12:01:34.051Z,18.26
2022-10-11T12:04:35.198Z,18.31
2022-10-11T12:07:16.328Z,18.42
2022-10-11T12:09:52.342Z,18.30
2022-10-11T12:12:38.448Z,18.50
2022-10-11T12:15:10.481Z,18.56
2022-10-11T12:18:02.335Z,18.72
2022-10-11T12:20:41.057Z,18.87
2022-10-11T12:23:35.242Z,19.03
2022-10-11T12:26:42.955Z,19.62
2022-10-11T12:29:17.593Z,20.14
2022-10-11T12:31:49.771Z,20.59
2022-10-11T12:37:31.936Z,21.85
2022-10-11T12:40:01.143Z,22.74
2022-10-11T12:42:33.502Z,23.18
2022-10-11T12:45:22.236Z,23.41
2022-10-11T12:48:07.951Z,23.90
2022-10-11T12:50:44.410Z,24.11
2022-10-11T12:54:07.944Z,24.23
2022-10-11T12:56:48.546Z,24.86
2022-10-11T12:59:21.437Z,24.83
2022-10-11T13:01:54.413Z,24.47
2022-10-11T13:04:27.187Z,24.43
2022-10-11T13:07:06.876Z,24.15
2022-10-11T13:09:45.342Z,24.45
2022-10-11T13:12:21.951Z,24.63
2022-10-11T13:15:10.237Z,24.47
2022-10-11T13:17:40.106Z,25.10
2022-10-11T13:20:18.506Z,25.66
2022-10-11T13:22:50.336Z,26.07
2022-10-11T13:25:37.887Z,26.39
2022-10-11T13:28:09.685Z,25.66
2022-10-11T13:30:44.375Z,24.69
2022-10-11T13:33:35.915Z,24.65
2022-10-11T13:36:09.150Z,24.28
2022-10-11T13:38:37.773Z,23.72
2022-10-11T13:41:10.324Z,23.86
2022-10-11T13:43:41.108Z,23.82
2022-10-11T13:46:19.826Z,23.58
2022-10-11T13:48:58.446Z,23.71
2022-10-11T13:51:34.912Z,23.20
2022-10-11T13:54:11.703Z,23.33
2022-10-11T13:56:50.282Z,22.83
2022-10-11T13:59:22.950Z,22.75
2022-10-11T14:01:59.034Z,22.81
2022-10-11T14:04:29.881Z,23.25
2022-10-11T14:07:02.813Z,23.28
2022-10-11T14:09:39.107Z,23.60
2022-10-11T14:12:31.174Z,24.14
2022-10-11T14:15:01.782Z,24.24
2022-10-11T14:17:40.739Z,24.17
2022-10-11T14:20:13.838Z,23.70
2022-10-11T14:22:42.794Z,23.20
2022-10-11T14:25:12.163Z,23.06
2022-10-11T14:27:41.172Z,22.79
2022-10-11T14:30:26.494Z,22.08
2022-10-11T14:32:59.745Z,21.51
2022-10-11T14:35:35.378Z,20.75
2022-10-11T14:38:04.181Z,20.09
2022-10-11T14:40:35.372Z,19.44
2022-10-11T14:43:06.010Z,18.97
2022-10-11T14:45:37.019Z,18.46
2022-10-11T14:48:10.592Z,17.97
2022-10-11T14:50:53.046Z,17.62
2022-10-11T14:53:22.709Z,17.29
2022-10-11T14:55:52.244Z,17.06
2022-10-11T14:58:20.800Z,16.78
2022-10-11T15:00:49.478Z,16.52
2022-10-11T15:03:18.070Z,16.16
2022-10-11T15:05:46.529Z,15.82
2022-10-11T15:08:15.378Z,15.49
2022-10-11T15:10:43.916Z,15.25
2022-10-11T15:13:12.582Z,14.95
2022-10-11T15:15:41.902Z,14.72
2022-10-11T15:18:13.831Z,14.56
2022-10-11T15:20:45.266Z,14.40
2022-10-11T15:23:14.191Z,14.24
2022-10-11T15:25:43.200Z,14.12
2022-10-11T15:28:29.686Z,13.96
2022-10-11T15:31:00.909Z,13.81
2022-10-11T15:33:29.461Z,13.66
2022-10-11T15:35:58.006Z,13.52
2022-10-11T15:38:26.691Z,13.39
2022-10-11T15:40:55.585Z,13.28
2022-10-11T15:43:25.179Z,13.16
2022-10-11T15:45:55.775Z,13.03
2022-10-11T15:48:26.469Z,12.91
2022-10-11T15:50:55.664Z,12.81
2022-10-11T15:53:31.388Z,12.74
2022-10-11T15:56:08.745Z,12.69
2022-10-11T15:58:40.212Z,12.65
2022-10-11T16:01:15.296Z,12.61
2022-10-11T16:03:45.294Z,12.55
2022-10-11T16:06:14.027Z,12.46
2022-10-11T16:08:42.728Z,12.33
2022-10-11T16:11:12.263Z,12.23
2022-10-11T16:13:41.372Z,12.17
2022-10-11T16:16:10.453Z,12.08
2022-10-11T16:18:39.973Z,12.00
2022-10-11T16:21:11.274Z,11.93
2022-10-11T16:23:39.740Z,11.86
2022-10-11T16:26:12.266Z,11.80
2022-10-11T16:28:42.280Z,11.70
2022-10-11T16:31:11.789Z,11.60
2022-10-11T16:33:46.203Z,11.51
2022-10-11T16:36:40.827Z,11.42
2022-10-11T16:39:19.665Z,11.33
2022-10-11T16:41:48.212Z,11.25
2022-10-11T16:44:20.247Z,11.19
2022-10-11T16:46:49.296Z,11.13
2022-10-11T16:49:20.414Z,11.09
2022-10-11T16:51:50.370Z,11.05
2022-10-11T16:54:20.811Z,11.03
2022-10-11T16:56:50.366Z,11.01
2022-10-11T16:59:19.128Z,10.98
2022-10-11T17:01:47.934Z,10.97
2022-10-11T17:04:16.414Z,10.97
2022-10-11T17:06:45.199Z,10.96
2022-10-11T17:09:14.043Z,10.96
2022-10-11T17:11:45.353Z,10.94
2022-10-11T17:14:14.129Z,10.90
2022-10-11T17:16:43.116Z,10.84
2022-10-11T17:19:14.146Z,10.78
2022-10-11T17:21:43.040Z,10.70
2022-10-11T17:24:11.348Z,10.59
2022-10-11T17:26:39.908Z,10.52
2022-10-11T17:29:13.137Z,10.46
2022-10-11T17:31:48.090Z,10.40
2022-10-11T17:34:18.148Z,10.37
2022-10-11T17:36:47.204Z,10.34
2022-10-11T17:39:19.516Z,10.30
2022-10-11T17:41:48.792Z,10.27
2022-10-11T17:44:20.079Z,10.27
2022-10-11T17:46:49.305Z,10.26
2022-10-11T17:49:17.993Z,10.28
2022-10-11T17:51:46.595Z,10.28
2022-10-11T17:54:14.925Z,10.27
2022-10-11T17:56:43.389Z,10.24
2022-10-11T17:59:17.243Z,10.20
2022-10-11T18:01:48.441Z,10.16
2022-10-11T18:04:21.621Z,10.13
2022-10-11T18:06:49.935Z,10.11
2022-10-11T18:09:19.558Z,10.10
2022-10-11T18:11:50.963Z,10.10
2022-10-11T18:14:19.542Z,10.09
2022-10-11T18:16:48.153Z,10.09
2022-10-11T18:19:16.846Z,10.11
2022-10-11T18:21:48.137Z,10.10
2022-10-11T18:24:20.160Z,10.08
2022-10-11T18:26:48.753Z,10.06
2022-10-11T18:29:17.232Z,10.05
2022-10-11T18:31:49.761Z,10.04
2022-10-11T18:34:19.345Z,10.02
2022-10-11T18:36:48.361Z,9.99
2022-10-11T18:39:16.867Z,9.97
2022-10-11T18:41:45.326Z,9.95
2022-10-11T18:44:15.649Z,9.95
2022-10-11T18:46:44.949Z,9.92
2022-10-11T18:49:14.253Z,9.91
2022-10-11T18:51:43.171Z,9.92
2022-10-11T18:54:16.721Z,9.90
2022-10-11T18:56:48.873Z,9.90
2022-10-11T18:59:17.680Z,9.89
2022-10-11T19:01:46.739Z,9.87
2022-10-11T19:04:16.307Z,9.86
2022-10-11T19:06:50.831Z,9.84
2022-10-11T19:09:24.637Z,9.81
2022-10-11T19:11:55.339Z,9.78
2022-10-11T19:14:26.625Z,9.76
2022-10-11T19:16:56.522Z,9.73
2022-10-11T19:19:29.994Z,9.67
2022-10-11T19:21:59.711Z,9.61
2022-10-11T19:24:30.260Z,9.57
2022-10-11T19:27:02.532Z,9.54
2022-10-11T19:29:32.622Z,9.52
2022-10-11T19:32:03.847Z,9.47
2022-10-11T19:34:33.166Z,9.44
2022-10-11T19:37:03.684Z,9.41
2022-10-11T19:39:32.496Z,9.39
2022-10-11T19:42:01.519Z,9.39
2022-10-11T19:44:32.519Z,9.38
2022-10-11T19:47:05.411Z,9.36
2022-10-11T19:49:34.058Z,9.34
2022-10-11T19:52:02.717Z,9.32
2022-10-11T19:54:32.131Z,9.29
2022-10-11T19:57:00.622Z,9.26
2022-10-11T19:59:29.102Z,9.24
2022-10-11T20:01:57.629Z,9.21
2022-10-11T20:07:14.846Z,9.18
2022-10-11T20:09:43.609Z,9.17
2022-10-11T20:12:12.458Z,9.15
2022-10-11T20:14:41.079Z,9.15
2022-10-11T20:17:09.650Z,9.12
2022-10-11T20:19:38.347Z,9.11
2022-10-11T20:22:07.298Z,9.11
2022-10-11T20:24:35.709Z,9.09
2022-10-11T20:27:05.816Z,9.08
2022-10-11T20:29:34.845Z,9.06
2022-10-11T20:32:03.380Z,9.03
2022-10-11T20:34:32.268Z,8.99
2022-10-11T20:37:00.659Z,8.96
2022-10-11T20:39:29.303Z,8.90
2022-10-11T20:41:57.928Z,8.84
2022-10-11T20:44:26.628Z,8.77
2022-10-11T20:46:56.193Z,8.70
2022-10-11T20:49:26.215Z,8.63
2022-10-11T20:51:54.776Z,8.54
2022-10-11T20:54:23.311Z,8.46
2022-10-11T20:56:51.965Z,8.38
2022-10-11T20:59:20.920Z,8.31
2022-10-11T21:01:50.216Z,8.26
2022-10-11T21:04:20.922Z,8.21
2022-10-11T21:06:50.072Z,8.17
2022-10-11T21:09:19.393Z,8.14
2022-10-11T21:11:48.112Z,8.13
2022-10-11T21:14:16.960Z,8.15
2022-10-11T21:16:45.956Z,8.16
2022-10-11T21:19:15.967Z,8.16
2022-10-11T21:21:51.167Z,8.16
2022-10-11T21:24:22.679Z,8.16
2022-10-11T21:26:56.947Z,8.17
2022-10-11T21:29:28.836Z,8.18
2022-10-11T21:31:57.333Z,8.18
2022-10-11T21:34:25.771Z,8.16
2022-10-11T21:36:54.906Z,8.14
2022-10-11T21:39:23.729Z,8.13
2022-10-11T21:41:52.475Z,8.12
2022-10-11T21:44:21.073Z,8.12
2022-10-11T21:49:38.918Z,8.00
2022-10-11T21:52:08.223Z,7.94
2022-10-11T21:54:38.047Z,7.88
2022-10-11T21:57:06.909Z,7.82
2022-10-11T21:59:36.435Z,7.77
2022-10-11T22:02:06.428Z,7.71
2022-10-11T22:04:35.270Z,7.66
2022-10-11T22:07:04.145Z,7.63
2022-10-11T22:09:35.376Z,7.61
2022-10-11T22:12:05.412Z,7.57
2022-10-11T22:14:34.187Z,7.54
2022-10-11T22:17:02.969Z,7.53
2022-10-11T22:19:32.339Z,7.52
2022-10-11T22:22:01.936Z,7.51
2022-10-11T22:24:31.175Z,7.49
2022-10-11T22:27:00.779Z,7.48
2022-10-11T22:29:34.030Z,7.45
2022-10-11T22:32:04.796Z,7.42
2022-10-11T22:34:34.485Z,7.39
2022-10-11T22:37:03.751Z,7.38
2022-10-11T22:39:34.365Z,7.36
2022-10-11T22:42:04.284Z,7.34
2022-10-11T22:44:34.299Z,7.32
2022-10-11T22:47:04.091Z,7.31
2022-10-11T22:49:34.407Z,7.31
2022-10-11T22:52:03.521Z,7.29
2022-10-11T22:54:33.047Z,7.28
2022-10-11T22:57:02.703Z,7.27
2022-10-11T22:59:33.693Z,7.26
2022-10-11T23:02:04.268Z,7.25
2022-10-11T23:04:33.947Z,7.23
2022-10-11T23:07:05.154Z,7.21
2022-10-11T23:09:35.193Z,7.19
2022-10-11T23:12:05.058Z,7.14
2022-10-11T23:14:34.081Z,7.12
2022-10-11T23:17:03.056Z,7.09
2022-10-11T23:19:32.137Z,7.08
2022-10-11T23:22:01.153Z,7.07
2022-10-11T23:24:31.232Z,7.06
2022-10-11T23:27:01.393Z,7.05
2022-10-11T23:29:32.469Z,7.04
2022-10-11T23:32:01.417Z,7.03
2022-10-11T23:34:30.523Z,7.02
2022-10-11T23:37:00.120Z,7.02
2022-10-11T23:39:30.618Z,7.02
2022-10-11T23:42:01.379Z,7.02
2022-10-11T23:44:30.783Z,7.03
2022-10-11T23:47:00.841Z,7.04
2022-10-11T23:49:31.612Z,7.05
2022-10-11T23:52:01.909Z,7.05
2022-10-11T23:54:31.130Z,7.06
2022-10-11T23:57:00.983Z,7.07
2022-10-11T23:59:29.697Z,7.07
